Terminal Aerodrome Forecast
Issued by NWS

Home | Current Version | Previous Version | Text Only | Print | Product List | Glossary On
Versions: 1 2 3 4 5 6 7 8 9 10 11 12 13 14 15 16 17 18 19 20 21 22 23
000
FTAK31 PAJN 161100
TAFAJN
TAF
PAJN 161140Z 1612/1712 09005KT P6SM -RA SCT004 BKN040 OVC070
     FM161400 VRB02KT P6SM -RA SCT025 OVC050
     FM162100 23005KT P6SM VCSH BKN050 OVC080
     FM170300 33004KT P6SM BKN100
     FM170800 00000KT P6SM OVC100=

USA.gov is the U.S. government's official web portal to all federal, state and local government web resources and services.